• Join FlightAware (Why Join?)
  • Login
  • US Flag 
 
11:57AM EST


 

Airport Tracker/Info


-or-


 

Live Flight TrackerFlight Track Log ✈ ASQ4252 ✈ 19-Jul-2013 ✈ KORD - KXNA

Flight Track Log - Related Links

Times and Time Zones

All times are in EDT time to prevent confusion due to time zone crossing. See the ASQ4252 flight status page for this flight to view local times or setup timezone preferences in your user account.

Time Position Orientation Groundspeed Altitude Reporting Facility
EDT Latitude Longitude Course Direction KTS MPH feet Rate Location/Type
09:08AM 41.9333 -87.9167 194° South 191 220 3,400  Level Chicago TRACON
09:09AM 41.8500 -87.9000 172° South 270 311 5,000 1,440 Climbing Chicago TRACON
09:10AM 41.8061 -87.8733 156° South 277 319 6,200 2,520 Climbing Chicago Center
09:11AM 41.6800 -88.2841 197° South  Level Estimated
09:11AM 41.7381 -87.8658 175° South 270 311 9,700  Level Chicago Center
09:12AM 41.5845 -88.2321 158° South  Level FlightAware Approximate
09:12AM 41.7014 -87.9722 245° Southwest 270 311 12,600  Level Chicago Center
09:13AM 41.5099 -88.3271 194° South  Level Estimated
09:13AM 41.6400 -88.0350 217° Southwest 292 336 14,800  Level Chicago Center
09:14AM 41.5614 -88.0836 205° Southwest 311 358 16,400 1,620 Climbing Chicago Center
09:15AM 41.4786 -88.1358 205° Southwest 333 383 18,200 1,860 Climbing Chicago Center
09:16AM 41.3747 -88.1953 203° Southwest 352 405 20,300 1,740 Climbing Chicago Center
09:17AM 41.2808 -88.2367 198° South 359 413 21,800 1,440 Climbing Chicago Center
09:18AM 41.1847 -88.2797 199° South 366 421 23,300 1,320 Climbing Chicago Center
09:19AM 41.0861 -88.3244 199° South 373 429 24,600 1,260 Climbing Chicago Center
09:20AM 40.9667 -88.3781 199° South 380 437 26,000 900 Climbing Chicago Center
09:21AM 40.8606 -88.4261 199° South 399 459 26,500 840 Climbing Chicago Center
09:22AM 40.7514 -88.4733 198° South 413 475 27,800 1,260 Climbing Chicago Center
09:23AM 40.6456 -88.5214 199° South 406 467 29,200 1,020 Climbing Chicago Center
09:24AM 40.5389 -88.5686 199° South 407 468 30,000 360 Climbing Chicago Center
09:26AM 40.4061 -88.6264 198° South 430 495 30,000 720 Level Chicago Center
09:27AM 40.2950 -88.6958 205° Southwest 447 514 31,600 960 Climbing Chicago Center
09:28AM 40.2081 -88.8039 224° Southwest 434 499 32,000 660 Climbing Chicago Center
09:29AM 40.1225 -88.9150 225° Southwest 436 502 33,000 960 Climbing Chicago Center
09:30AM 40.0369 -89.0228 224° Southwest 429 494 34,000 600 Climbing Chicago Center
09:31AM 39.9500 -89.1319 224° Southwest 433 498 34,200 900 Climbing Kansas City Center
09:32AM 39.8622 -89.2425 224° Southwest 438 504 35,800 840 Climbing Kansas City Center
09:33AM 39.7758 -89.3514 224° Southwest 434 499 36,000 60 Climbing Kansas City Center
09:34AM 39.6797 -89.4739 224° Southwest 441 507 36,000  Level Kansas City Center
09:35AM 39.5908 -89.5833 224° Southwest 443 510 36,000  Level Kansas City Center
09:36AM 39.5031 -89.6919 224° Southwest 440 506 36,000  Level Kansas City Center
09:37AM 39.4150 -89.8019 224° Southwest 440 506 36,000  Level Kansas City Center
09:38AM 39.3269 -89.9119 224° Southwest 441 507 36,000  Level Kansas City Center
09:39AM 39.2383 -90.0214 224° Southwest 443 510 36,000  Level Kansas City Center
09:40AM 39.1314 -90.1531 224° Southwest 444 511 36,000  Level Kansas City Center
09:41AM 39.0414 -90.2639 224° Southwest 448 516 36,000  Level Kansas City Center
09:42AM 38.9525 -90.3733 224° Southwest 448 516 36,000  Level Kansas City Center
09:43AM 38.8642 -90.4853 225° Southwest 442 509 36,000  Level Kansas City Center
09:44AM 38.7797 -90.6044 228° Southwest 445 512 36,000  Level Kansas City Center
09:45AM 38.6894 -90.7400 230° Southwest 444 511 36,000  Level Kansas City Center
09:46AM 38.6094 -90.8594 229° Southwest 445 512 36,000  Level Kansas City Center
09:47AM 38.5311 -90.9750 229° Southwest 436 502 36,000  Level Kansas City Center
09:48AM 38.4503 -91.0944 229° Southwest 444 511 36,000  Level Kansas City Center
09:49AM 38.3700 -91.2122 229° Southwest 442 509 36,000  Level Kansas City Center
09:50AM 38.2728 -91.3542 229° Southwest 444 511 36,000  Level Kansas City Center
09:51AM 38.1975 -91.4636 229° Southwest 446 513 36,000 -720 Level Kansas City Center
09:52AM 38.1164 -91.5811 229° Southwest 444 511 34,600 -1,620 Descending Kansas City Center
09:53AM 38.0169 -91.7256 229° Southwest 447 514 32,800 -1,680 Descending Kansas City Center
09:54AM 37.9339 -91.8475 229° Southwest 450 518 31,200 -1,320 Descending Kansas City Center
09:55AM 37.8506 -91.9672 229° Southwest 445 512 30,100 -1,080 Descending Kansas City Center
09:56AM 37.7633 -92.0931 229° Southwest 454 522 29,000 -1,080 Descending Kansas City Center
09:57AM 37.6756 -92.2181 228° Southwest 467 537 28,000 -1,020 Descending Kansas City Center
09:58AM 37.5900 -92.3392 228° Southwest 465 535 27,000 -1,020 Descending Kansas City Center
09:59AM 37.5022 -92.4639 228° Southwest 466 536 25,900 -1,080 Descending Kansas City Center
10:00AM 37.4139 -92.5894 228° Southwest 472 543 24,900 -1,020 Descending Kansas City Center
10:02AM 37.3297 -92.7078 228° Southwest 457 526 23,800 -1,380 Descending Kansas City Center
10:03AM 37.2272 -92.8467 227° Southwest 449 517 22,000 -1,620 Descending Kansas City Center
10:04AM 37.1450 -92.9644 229° Southwest 448 516 20,500 -1,560 Descending Kansas City Center
10:05AM 37.0644 -93.0747 228° Southwest 436 502 18,900 -1,500 Descending Kansas City Center
10:06AM 36.9858 -93.1831 228° Southwest 425 489 17,400 -1,560 Descending Kansas City Center
10:07AM 36.9103 -93.2894 228° Southwest 415 478 15,600 -1,260 Descending Kansas City Center
10:08AM 36.8317 -93.3897 226° Southwest 409 471 14,900 -360 Descending Kansas City Center
10:09AM 36.7519 -93.4889 225° Southwest 407 468 14,900 -120 Level Kansas City Center
10:10AM 36.6567 -93.6086 225° Southwest 407 468 14,700 -900 Descending Kansas City Center
10:11AM 36.5789 -93.7075 226° Southwest 404 465 13,100 -1,680 Descending Kansas City Center
10:12AM 36.5247 -93.8108 237° Southwest 383 441 11,300 -1,500 Descending Kansas City Center
10:13AM 36.5128 -93.9322 263° West 357 411 10,000 -720 Descending Kansas City Center
10:14AM 36.4992 -94.0372 261° West 318 366 9,900 -1,020 Descending Kansas City Center
10:15AM 36.4900 -94.1494 264° West 281 323 8,000 -1,860 Descending Kansas City Center
10:16AM 36.4817 -94.2397 263° West 272 313 6,200 -1,740 Descending Kansas City Center
10:17AM 36.4744 -94.3264 264° West 261 300 4,400 -1,740 Descending Kansas City Center